Time;durP1;ratioP1;P1;durP2;ratioP2;P2;SDS_P1;SDS_P2;PMS_P1;PMS_P2;Temp;Humidity;BMP_temperature;BMP_pressure;BME280_temperature;BME280_humidity;BME280_pressure;Samples;Min_cycle;Max_cycle;Signal;HPM_P1;HPM_P2
2023/03/24 00:02:16;;;;;;;10.63;4.32;;;;;;;;;;6314470;22;20008;-95
2023/03/24 00:04:42;;;;;;;12.18;4.30;;;;;;;;;;6314305;22;20013;-95
2023/03/24 00:07:13;;;;;;;17.80;4.45;;;;;;;;;;6289773;22;20007;-95
2023/03/24 00:09:39;;;;;;;9.15;3.20;;;;;;;;;;6315912;22;20645;-95
2023/03/24 00:12:06;;;;;;;14.65;4.30;;;;;;;;;;6314879;22;20041;-95
2023/03/24 00:14:32;;;;;;;11.98;3.45;;;;;;;;;;6316838;22;20459;-96
2023/03/24 00:16:58;;;;;;;12.73;4.55;;;;;;;;;;6291196;22;20035;-96
2023/03/24 00:19:25;;;;;;;9.70;2.90;;;;;;;;;;6291821;22;20015;-95
2023/03/24 00:21:54;;;;;;;8.10;3.15;;;;;;;;;;6315677;22;20095;-95
2023/03/24 00:24:24;;;;;;;13.57;4.20;;;;;;;;;;6292937;22;20026;-94
2023/03/24 00:26:50;;;;;;;5.30;2.42;;;;;;;;;;6291861;22;19992;-95
2023/03/24 00:29:17;;;;;;;9.27;2.90;;;;;;;;;;6291221;22;20019;-96
2023/03/24 00:31:47;;;;;;;9.80;3.72;;;;;;;;;;6316604;22;20015;-96
2023/03/24 00:34:13;;;;;;;11.10;4.38;;;;;;;;;;6315367;22;20007;-95
2023/03/24 00:36:39;;;;;;;16.70;5.07;;;;;;;;;;6292513;22;20019;-96
2023/03/24 00:39:06;;;;;;;10.32;4.10;;;;;;;;;;6320310;22;20007;-93
2023/03/24 00:41:33;;;;;;;13.38;5.10;;;;;;;;;;6321495;22;20056;-91
2023/03/24 00:44:02;;;;;;;11.77;3.58;;;;;;;;;;6320870;22;20011;-95
2023/03/24 00:46:28;;;;;;;8.25;3.35;;;;;;;;;;6323666;22;20064;-93
2023/03/24 00:48:56;;;;;;;10.15;5.22;;;;;;;;;;6294732;22;20015;-93
2023/03/24 00:51:23;;;;;;;10.38;3.90;;;;;;;;;;6320543;22;20003;-94
2023/03/24 00:53:56;;;;;;;9.13;4.13;;;;;;;;;;6289610;22;20027;-94
2023/03/24 00:56:25;;;;;;;5.82;3.10;;;;;;;;;;6289233;22;20011;-94
2023/03/24 00:58:53;;;;;;;11.38;4.22;;;;;;;;;;6289884;22;20014;-96
2023/03/24 01:01:20;;;;;;;6.85;3.13;;;;;;;;;;6289465;22;20097;-94
2023/03/24 01:03:49;;;;;;;8.95;4.55;;;;;;;;;;6289670;22;20388;-94
2023/03/24 01:06:21;;;;;;;10.98;3.38;;;;;;;;;;6287497;22;20011;-94
2023/03/24 01:08:56;;;;;;;7.03;2.75;;;;;;;;;;6288981;22;20011;-95
2023/03/24 01:11:24;;;;;;;12.80;3.45;;;;;;;;;;6312209;22;20004;-95
2023/03/24 01:13:53;;;;;;;6.72;3.67;;;;;;;;;;6310850;22;20022;-95
2023/03/24 01:16:24;;;;;;;15.02;3.67;;;;;;;;;;6309747;22;20007;-93
2023/03/24 01:18:51;;;;;;;11.10;3.35;;;;;;;;;;6310664;22;20011;-94
2023/03/24 01:21:20;;;;;;;9.00;4.65;;;;;;;;;;6286299;22;20049;-95
2023/03/24 01:23:46;;;;;;;12.90;4.30;;;;;;;;;;6284573;22;20011;-94
2023/03/24 01:26:22;;;;;;;8.82;3.88;;;;;;;;;;6283385;22;19999;-95
2023/03/24 01:28:48;;;;;;;10.25;3.88;;;;;;;;;;6285874;22;20011;-96
2023/03/24 01:31:14;;;;;;;6.75;2.70;;;;;;;;;;6309580;22;20011;-94
2023/03/24 01:33:43;;;;;;;6.55;2.13;;;;;;;;;;6310090;22;20038;-95
2023/03/24 01:36:10;;;;;;;11.27;3.60;;;;;;;;;;6311643;22;20018;-95
2023/03/24 01:38:38;;;;;;;9.50;2.70;;;;;;;;;;6310640;22;20303;-94
2023/03/24 01:41:08;;;;;;;10.55;3.17;;;;;;;;;;6310430;22;19999;-95
2023/03/24 01:43:35;;;;;;;7.25;3.22;;;;;;;;;;6311267;22;20007;-95
2023/03/24 01:46:13;;;;;;;5.40;2.00;;;;;;;;;;6312685;22;20304;-95
2023/03/24 01:48:55;;;;;;;11.30;2.67;;;;;;;;;;6310829;22;20012;-94
2023/03/24 01:51:36;;;;;;;3.03;2.08;;;;;;;;;;6311089;22;20182;-95
2023/03/24 01:54:04;;;;;;;7.20;3.38;;;;;;;;;;6310588;22;20246;-95
2023/03/24 01:56:43;;;;;;;6.10;2.60;;;;;;;;;;6311191;22;20007;-95
2023/03/24 01:59:17;;;;;;;6.03;2.88;;;;;;;;;;6311237;22;20010;-96
2023/03/24 02:01:44;;;;;;;1.58;1.23;;;;;;;;;;6310985;22;20007;-95
2023/03/24 02:04:11;;;;;;;4.90;2.33;;;;;;;;;;6309786;22;20047;-95
2023/03/24 02:06:39;;;;;;;8.55;3.28;;;;;;;;;;6310166;22;20026;-96
2023/03/24 02:09:06;;;;;;;8.85;3.92;;;;;;;;;;6309746;22;20007;-95
2023/03/24 02:11:33;;;;;;;8.93;3.10;;;;;;;;;;6310099;22;20401;-94
2023/03/24 02:14:00;;;;;;;8.63;3.75;;;;;;;;;;6310230;22;20015;-94
2023/03/24 02:16:26;;;;;;;5.10;2.70;;;;;;;;;;6310921;22;20031;-95
2023/03/24 02:19:03;;;;;;;10.25;3.75;;;;;;;;;;6309958;22;20003;-95
2023/03/24 02:21:31;;;;;;;6.47;3.05;;;;;;;;;;6311484;22;20007;-93
2023/03/24 02:24:07;;;;;;;8.50;3.17;;;;;;;;;;6310406;22;20000;-95
2023/03/24 02:26:52;;;;;;;7.75;3.03;;;;;;;;;;6310045;22;20635;-95
2023/03/24 02:29:37;;;;;;;4.50;2.70;;;;;;;;;;6310940;22;20460;-94
2023/03/24 02:32:28;;;;;;;8.25;3.15;;;;;;;;;;6311004;22;20073;-94
2023/03/24 02:35:09;;;;;;;9.48;2.45;;;;;;;;;;6284742;22;20016;-95
2023/03/24 02:37:56;;;;;;;5.63;2.60;;;;;;;;;;6311280;22;20034;-96
2023/03/24 02:40:23;;;;;;;11.57;3.40;;;;;;;;;;6284262;22;20018;-94
2023/03/24 02:43:07;;;;;;;9.43;3.35;;;;;;;;;;6284153;22;19995;-94
2023/03/24 02:45:52;;;;;;;8.93;3.83;;;;;;;;;;6283412;22;20057;-95
2023/03/24 02:48:29;;;;;;;5.53;1.92;;;;;;;;;;6282553;22;19999;-94
2023/03/24 02:51:08;;;;;;;9.80;3.17;;;;;;;;;;6283847;22;20396;-96
2023/03/24 02:53:56;;;;;;;11.77;3.78;;;;;;;;;;6284790;22;20003;-96
2023/03/24 02:56:28;;;;;;;5.90;2.05;;;;;;;;;;6284688;22;20007;-95
2023/03/24 02:59:00;;;;;;;6.97;3.00;;;;;;;;;;6283602;22;20003;-95
2023/03/24 03:01:32;;;;;;;6.45;2.17;;;;;;;;;;6283894;22;20437;-95
2023/03/24 03:04:21;;;;;;;9.52;2.60;;;;;;;;;;6284090;22;20068;-94
2023/03/24 03:06:51;;;;;;;4.38;3.00;;;;;;;;;;6290018;22;20065;-95
2023/03/24 03:09:34;;;;;;;6.45;3.17;;;;;;;;;;6291443;22;20031;-96
2023/03/24 03:12:01;;;;;;;3.88;2.50;;;;;;;;;;6285085;22;20033;-96
2023/03/24 03:14:49;;;;;;;10.63;2.72;;;;;;;;;;6261604;22;20011;-96
2023/03/24 03:17:29;;;;;;;5.70;2.30;;;;;;;;;;6312894;22;20007;-96
2023/03/24 03:20:23;;;;;;;4.22;2.35;;;;;;;;;;6289519;22;20086;-96
2023/03/24 03:23:01;;;;;;;3.47;1.90;;;;;;;;;;6242955;22;20003;-96
2023/03/24 03:25:30;;;;;;;5.63;2.63;;;;;;;;;;6316405;22;20003;-96
2023/03/24 03:27:59;;;;;;;2.05;1.45;;;;;;;;;;6287674;22;20007;-96
2023/03/24 03:30:32;;;;;;;6.82;2.30;;;;;;;;;;6287661;22;20010;-96
2023/03/24 03:33:25;;;;;;;6.50;1.98;;;;;;;;;;6297060;22;20015;-96
2023/03/24 03:35:54;;;;;;;2.58;1.25;;;;;;;;;;6311609;22;20007;-96
2023/03/24 03:38:29;;;;;;;5.45;2.35;;;;;;;;;;6314146;22;20018;-96
2023/03/24 03:40:58;;;;;;;5.78;2.33;;;;;;;;;;6317539;22;20062;-96
2023/03/24 03:43:25;;;;;;;2.75;1.80;;;;;;;;;;6313203;22;20348;-96
2023/03/24 03:45:55;;;;;;;5.80;2.65;;;;;;;;;;6286092;22;20007;-96
2023/03/24 03:48:25;;;;;;;3.42;2.50;;;;;;;;;;6313257;22;20004;-96
2023/03/24 03:50:54;;;;;;;7.93;2.10;;;;;;;;;;6317443;22;20034;-96
2023/03/24 03:53:24;;;;;;;4.38;1.88;;;;;;;;;;6315922;22;20026;-96
2023/03/24 03:55:51;;;;;;;4.90;2.30;;;;;;;;;;6315174;22;20007;-96
2023/03/24 03:58:19;;;;;;;10.65;2.85;;;;;;;;;;6287153;22;20046;-96
2023/03/24 04:00:46;;;;;;;7.95;2.65;;;;;;;;;;6314953;22;20342;-96
2023/03/24 04:03:29;;;;;;;7.15;2.00;;;;;;;;;;6296960;22;20091;-96
2023/03/24 04:06:00;;;;;;;6.40;2.35;;;;;;;;;;6324712;22;20007;-95
2023/03/24 04:08:44;;;;;;;9.32;2.03;;;;;;;;;;6322913;22;20710;-96
2023/03/24 04:11:14;;;;;;;1.92;1.02;;;;;;;;;;6323351;22;20040;-96
2023/03/24 04:13:54;;;;;;;8.57;1.90;;;;;;;;;;6328689;22;20050;-96
2023/03/24 04:16:39;;;;;;;3.15;1.23;;;;;;;;;;6324803;22;20018;-96
2023/03/24 04:19:36;;;;;;;2.10;0.73;;;;;;;;;;6320524;22;20032;-96
2023/03/24 04:22:16;;;;;;;12.35;2.05;;;;;;;;;;6298826;22;20102;-96
2023/03/24 04:24:53;;;;;;;17.45;1.55;;;;;;;;;;6325851;22;19999;-96
2023/03/24 04:27:45;;;;;;;18.95;1.33;;;;;;;;;;6327376;22;20003;-96
2023/03/24 04:30:29;;;;;;;4.53;1.88;;;;;;;;;;6325997;22;19991;-96
2023/03/24 04:33:02;;;;;;;9.40;1.45;;;;;;;;;;6322905;22;20031;-96
2023/03/24 04:35:33;;;;;;;7.03;1.05;;;;;;;;;;6318219;22;20003;-96
2023/03/24 04:38:26;;;;;;;9.98;1.58;;;;;;;;;;6318119;22;20008;-95
2023/03/24 04:40:54;;;;;;;6.57;1.13;;;;;;;;;;6309707;22;20007;-96
2023/03/24 04:43:25;;;;;;;9.30;1.55;;;;;;;;;;6318110;22;20007;-96
2023/03/24 04:45:57;;;;;;;6.75;1.15;;;;;;;;;;6323743;22;20003;-96
2023/03/24 04:48:25;;;;;;;5.20;1.25;;;;;;;;;;6327543;22;20007;-96
2023/03/24 04:50:58;;;;;;;6.88;1.75;;;;;;;;;;6325035;22;20477;-96
2023/03/24 04:53:28;;;;;;;7.85;1.27;;;;;;;;;;6324914;22;20094;-96
2023/03/24 04:56:06;;;;;;;11.93;1.67;;;;;;;;;;6321323;22;20041;-96
2023/03/24 04:58:33;;;;;;;11.68;1.40;;;;;;;;;;6318239;22;19999;-96
2023/03/24 05:00:59;;;;;;;8.32;2.05;;;;;;;;;;6295419;22;20442;-96
2023/03/24 05:03:25;;;;;;;5.40;1.52;;;;;;;;;;6293415;22;20037;-96
2023/03/24 05:05:52;;;;;;;12.07;1.60;;;;;;;;;;6291795;22;20462;-96
2023/03/24 05:08:25;;;;;;;9.35;1.90;;;;;;;;;;6324896;22;20370;-96
2023/03/24 05:10:51;;;;;;;8.85;1.75;;;;;;;;;;6296827;22;20008;-96
2023/03/24 05:13:21;;;;;;;12.45;2.05;;;;;;;;;;6293180;22;20058;-96
2023/03/24 05:15:47;;;;;;;6.85;1.30;;;;;;;;;;6297246;22;20003;-96
2023/03/24 05:18:13;;;;;;;4.60;1.10;;;;;;;;;;6294485;22;20011;-96
2023/03/24 05:20:40;;;;;;;11.23;1.25;;;;;;;;;;6321398;22;20054;-96
2023/03/24 05:23:06;;;;;;;10.13;2.22;;;;;;;;;;6294800;22;20140;-96
2023/03/24 05:25:32;;;;;;;13.05;2.53;;;;;;;;;;6319731;22;19999;-96
2023/03/24 05:27:58;;;;;;;6.38;1.33;;;;;;;;;;6293662;22;20109;-96
2023/03/24 05:30:25;;;;;;;5.35;1.42;;;;;;;;;;6323776;22;20068;-96
2023/03/24 05:32:52;;;;;;;4.03;1.67;;;;;;;;;;6296125;22;20030;-96
2023/03/24 05:35:19;;;;;;;18.48;2.53;;;;;;;;;;6323048;22;20045;-96
2023/03/24 05:37:45;;;;;;;7.32;2.28;;;;;;;;;;6289710;22;20076;-96
2023/03/24 05:40:11;;;;;;;8.77;2.95;;;;;;;;;;6289338;22;20007;-96
2023/03/24 05:42:38;;;;;;;12.88;3.00;;;;;;;;;;6312848;22;20003;-96
2023/03/24 05:45:05;;;;;;;8.73;1.77;;;;;;;;;;6313878;22;20011;-96
2023/03/24 05:47:31;;;;;;;24.38;2.85;;;;;;;;;;6316002;22;20000;-96
2023/03/24 05:50:04;;;;;;;14.95;2.17;;;;;;;;;;6319075;22;20023;-96
2023/03/24 05:52:32;;;;;;;11.73;2.17;;;;;;;;;;6316463;22;20044;-96
2023/03/24 05:54:58;;;;;;;7.93;1.88;;;;;;;;;;6288190;22;20086;-95
2023/03/24 05:57:25;;;;;;;18.23;2.92;;;;;;;;;;6286632;22;20102;-96
2023/03/24 05:59:58;;;;;;;12.20;2.35;;;;;;;;;;6287076;22;20026;-96
2023/03/24 06:02:24;;;;;;;16.35;2.33;;;;;;;;;;6317930;22;20398;-96
2023/03/24 06:04:52;;;;;;;8.88;2.78;;;;;;;;;;6313658;22;20008;-95
2023/03/24 06:07:21;;;;;;;9.68;2.05;;;;;;;;;;6313446;22;20007;-95
2023/03/24 06:09:49;;;;;;;8.55;2.72;;;;;;;;;;6310003;22;20018;-96
2023/03/24 06:12:16;;;;;;;10.57;2.83;;;;;;;;;;6284860;22;20018;-96
2023/03/24 06:14:42;;;;;;;11.63;3.20;;;;;;;;;;6283615;22;20094;-96
2023/03/24 06:17:13;;;;;;;7.40;2.53;;;;;;;;;;6284726;22;20496;-95
2023/03/24 06:19:47;;;;;;;23.27;2.35;;;;;;;;;;6285112;22;20013;-96
2023/03/24 06:22:14;;;;;;;11.57;1.80;;;;;;;;;;6310027;22;20036;-96
2023/03/24 06:24:55;;;;;;;8.88;2.10;;;;;;;;;;6318136;22;20063;-96
2023/03/24 06:27:24;;;;;;;13.23;2.08;;;;;;;;;;6326829;22;20053;-96
2023/03/24 06:30:00;;;;;;;13.07;2.20;;;;;;;;;;6326097;22;20072;-96
2023/03/24 06:32:27;;;;;;;13.10;2.40;;;;;;;;;;6316619;22;20075;-96
2023/03/24 06:35:04;;;;;;;17.45;3.42;;;;;;;;;;6319435;22;20433;-96
2023/03/24 06:37:39;;;;;;;8.98;2.33;;;;;;;;;;6294035;22;20046;-96
2023/03/24 06:40:06;;;;;;;10.25;1.95;;;;;;;;;;6269922;22;20015;-96
2023/03/24 06:42:44;;;;;;;11.98;3.13;;;;;;;;;;6270418;22;20018;-96
2023/03/24 06:45:10;;;;;;;7.97;1.98;;;;;;;;;;6276577;22;20029;-96
2023/03/24 07:03:32;;;;;;;16.35;1.90;;;;;;;;;;6285295;22;20087;-94
2023/03/24 07:22:27;;;;;;;24.23;2.60;;;;;;;;;;6331518;22;20014;-96
2023/03/24 07:24:57;;;;;;;17.13;5.20;;;;;;;;;;6283885;22;20007;-96
2023/03/24 07:27:51;;;;;;;21.95;2.63;;;;;;;;;;6326397;22;20058;-96
2023/03/24 12:17:32;;;;;;;8.68;2.10;;;;;;;;;;6285288;22;20107;-92
2023/03/24 12:20:08;;;;;;;10.23;1.38;;;;;;;;;;6287259;22;20459;-91
2023/03/24 12:22:50;;;;;;;15.48;2.28;;;;;;;;;;6285821;22;20003;-93
2023/03/24 12:25:25;;;;;;;4.78;1.45;;;;;;;;;;6287391;22;20041;-92
2023/03/24 12:28:11;;;;;;;8.18;2.05;;;;;;;;;;6317295;22;20051;-93
2023/03/24 12:30:40;;;;;;;10.25;2.35;;;;;;;;;;6290522;22;20017;-93
2023/03/24 12:33:07;;;;;;;19.42;2.90;;;;;;;;;;6288584;22;20003;-92
2023/03/24 12:35:47;;;;;;;14.52;2.60;;;;;;;;;;6290190;22;20404;-93
2023/03/24 12:38:33;;;;;;;3.95;1.42;;;;;;;;;;6288760;22;20037;-92
2023/03/24 12:41:08;;;;;;;;;;;;;;;;;;6290751;22;20007;-93
2023/03/24 12:43:53;;;;;;;11.02;2.67;;;;;;;;;;6313956;22;19898;-92
2023/03/24 12:46:41;;;;;;;14.18;2.20;;;;;;;;;;6283760;22;19999;-91
2023/03/24 12:49:24;;;;;;;17.08;2.40;;;;;;;;;;6259645;22;20012;-92
2023/03/24 12:52:17;;;;;;;10.82;2.28;;;;;;;;;;6260051;22;20041;-92
2023/03/24 13:01:53;;;;;;;21.27;3.00;;;;;;;;;;6084531;23;20015;-94
2023/03/24 13:07:52;;;;;;;;;;;;;;;;;;;;;
2023/03/24 13:14:24;;;;;;;15.57;2.25;;;;;;;;;;6070220;23;20022;-94
2023/03/24 13:16:51;;;;;;;14.20;2.45;;;;;;;;;;6133580;23;20012;-94
2023/03/24 13:19:30;;;;;;;7.78;1.98;;;;;;;;;;6139197;23;20028;-91
2023/03/24 13:22:08;;;;;;;11.10;1.85;;;;;;;;;;6164256;23;20005;-91
2023/03/24 13:24:35;;;;;;;10.43;1.88;;;;;;;;;;6119136;23;20010;-91
2023/03/24 13:27:08;;;;;;;11.23;2.38;;;;;;;;;;6164945;23;20033;-93
2023/03/24 13:30:06;;;;;;;7.47;1.40;;;;;;;;;;6161399;23;20014;-91
2023/03/24 13:32:45;;;;;;;4.70;1.73;;;;;;;;;;6172720;23;20044;-91
2023/03/24 13:35:30;;;;;;;11.48;2.38;;;;;;;;;;6220266;23;20111;-92
2023/03/24 13:38:12;;;;;;;4.82;1.38;;;;;;;;;;6220800;23;20011;-92
2023/03/24 13:40:50;;;;;;;16.15;1.60;;;;;;;;;;6222391;23;20035;-92
2023/03/24 13:43:46;;;;;;;9.38;1.75;;;;;;;;;;6220529;23;20015;-94
2023/03/24 13:46:20;;;;;;;15.35;2.30;;;;;;;;;;6197665;23;20023;-96
2023/03/24 13:51:57;;;;;;;16.52;2.60;;;;;;;;;;6222017;23;20013;-94
2023/03/24 13:54:25;;;;;;;9.45;1.85;;;;;;;;;;6223442;23;20010;-88
2023/03/24 13:56:54;;;;;;;9.82;2.38;;;;;;;;;;6224109;23;20012;-95
2023/03/24 13:59:26;;;;;;;11.48;1.90;;;;;;;;;;6222432;23;20343;-94
2023/03/24 14:02:17;;;;;;;7.05;1.83;;;;;;;;;;6222844;23;20004;-95
2023/03/24 14:05:06;;;;;;;6.68;1.63;;;;;;;;;;6222126;23;20000;-95
2023/03/24 14:08:04;;;;;;;;;;;;;;;;;;;;;
2023/03/24 14:10:42;;;;;;;12.27;2.40;;;;;;;;;;6222281;23;20024;-95
2023/03/24 14:13:26;;;;;;;16.20;2.50;;;;;;;;;;6221300;23;20015;-95
2023/03/24 14:16:13;;;;;;;6.57;1.67;;;;;;;;;;6221988;23;20092;-94
2023/03/24 14:19:07;;;;;;;13.20;1.88;;;;;;;;;;6263148;22;20012;-95
2023/03/24 14:22:12;;;;;;;13.85;3.47;;;;;;;;;;6226035;23;20011;-95
2023/03/24 14:24:46;;;;;;;11.00;2.22;;;;;;;;;;6190259;23;20039;-96
2023/03/24 14:27:33;;;;;;;11.73;1.80;;;;;;;;;;6191910;23;20005;-95
2023/03/24 14:30:21;;;;;;;9.40;2.72;;;;;;;;;;6249239;22;20059;-96
2023/03/24 14:33:07;;;;;;;13.13;2.67;;;;;;;;;;6252759;23;20008;-95
2023/03/24 14:35:48;;;;;;;13.00;2.60;;;;;;;;;;6254393;23;20023;-95
2023/03/24 14:38:14;;;;;;;3.92;1.90;;;;;;;;;;6253987;23;20078;-96
2023/03/24 14:41:03;;;;;;;7.28;1.98;;;;;;;;;;6254852;22;20436;-96
2023/03/24 14:43:51;;;;;;;11.60;2.47;;;;;;;;;;6226506;23;20007;-94
2023/03/24 16:24:15;;;;;;;12.10;2.17;;;;;;;;;;6285057;22;20148;-94
2023/03/24 16:26:42;;;;;;;5.63;1.42;;;;;;;;;;6257151;22;20012;-94
2023/03/24 16:29:15;;;;;;;11.60;1.92;;;;;;;;;;6258310;22;20307;-95
2023/03/24 16:31:47;;;;;;;12.35;2.00;;;;;;;;;;6257915;22;20030;-95
2023/03/24 16:34:17;;;;;;;5.97;1.48;;;;;;;;;;6283879;22;20004;-94
2023/03/24 16:36:51;;;;;;;6.53;1.48;;;;;;;;;;6283422;22;20060;-95
2023/03/24 16:39:25;;;;;;;8.57;2.10;;;;;;;;;;6258019;22;20337;-95
2023/03/24 16:41:52;;;;;;;12.27;2.10;;;;;;;;;;6234003;22;20065;-94
2023/03/24 16:44:25;;;;;;;3.28;1.17;;;;;;;;;;6283046;22;20023;-95
2023/03/24 16:46:58;;;;;;;14.07;1.88;;;;;;;;;;6262068;22;20004;-93
2023/03/24 16:49:30;;;;;;;7.15;1.83;;;;;;;;;;6284969;22;20041;-93
2023/03/24 16:51:56;;;;;;;10.98;1.55;;;;;;;;;;6256057;22;20031;-92
2023/03/24 16:54:32;;;;;;;;;;;;;;;;;;;;;
2023/03/24 16:57:28;;;;;;;6.18;1.40;;;;;;;;;;6284552;22;20026;-93
2023/03/24 17:00:09;;;;;;;4.05;0.82;;;;;;;;;;6162649;23;20478;-93
2023/03/24 17:02:48;;;;;;;7.10;1.63;;;;;;;;;;6143194;23;20019;-95
2023/03/24 17:08:37;;;;;;;12.27;2.80;;;;;;;;;;6268725;22;20012;-95
2023/03/24 17:11:06;;;;;;;7.50;2.25;;;;;;;;;;6257103;22;20015;-93
2023/03/24 17:13:33;;;;;;;3.58;1.10;;;;;;;;;;6257076;22;20004;-93
2023/03/24 17:16:00;;;;;;;8.68;2.00;;;;;;;;;;6234165;22;20020;-93
2023/03/24 17:18:31;;;;;;;8.52;1.50;;;;;;;;;;6258635;22;20007;-94
2023/03/24 17:21:01;;;;;;;10.93;1.67;;;;;;;;;;6259769;22;20023;-93
2023/03/24 17:23:29;;;;;;;18.85;2.78;;;;;;;;;;6232641;22;20443;-93
2023/03/24 17:25:55;;;;;;;13.52;1.58;;;;;;;;;;6281974;22;20041;-94
2023/03/24 17:28:21;;;;;;;14.05;1.77;;;;;;;;;;6286093;22;20031;-93
2023/03/24 17:30:58;;;;;;;13.15;2.08;;;;;;;;;;6284607;22;20003;-93
2023/03/24 17:33:24;;;;;;;19.08;2.08;;;;;;;;;;6285415;22;20010;-93
2023/03/24 17:35:53;;;;;;;4.25;1.13;;;;;;;;;;6284622;22;20007;-93
2023/03/24 17:38:22;;;;;;;15.55;2.55;;;;;;;;;;6284281;22;20027;-93
2023/03/24 17:40:49;;;;;;;15.93;1.92;;;;;;;;;;6285115;22;20007;-93
2023/03/24 17:43:18;;;;;;;22.63;2.15;;;;;;;;;;6255343;22;20011;-94
2023/03/24 17:45:45;;;;;;;11.60;1.80;;;;;;;;;;6255122;22;20008;-93
2023/03/24 17:48:13;;;;;;;11.07;2.47;;;;;;;;;;6254747;22;20008;-91
2023/03/24 17:50:40;;;;;;;9.63;1.63;;;;;;;;;;6256209;22;20007;-93
2023/03/24 17:53:06;;;;;;;14.88;2.53;;;;;;;;;;6280968;22;20010;-93
2023/03/24 17:55:32;;;;;;;23.17;2.70;;;;;;;;;;6282097;22;20019;-94
2023/03/24 17:58:01;;;;;;;9.48;1.65;;;;;;;;;;6255251;22;20016;-94
2023/03/24 18:00:31;;;;;;;8.20;1.48;;;;;;;;;;6280472;22;20008;-93
2023/03/24 18:02:58;;;;;;;14.18;2.05;;;;;;;;;;6282488;22;20012;-92
2023/03/24 18:05:34;;;;;;;7.07;1.67;;;;;;;;;;6281527;22;20007;-93
2023/03/24 18:08:03;;;;;;;18.60;1.77;;;;;;;;;;6282713;22;20538;-93
2023/03/24 18:10:30;;;;;;;9.32;2.10;;;;;;;;;;6281804;22;20028;-93
2023/03/24 18:13:00;;;;;;;7.78;1.48;;;;;;;;;;6281447;22;20069;-92
2023/03/24 18:15:30;;;;;;;12.50;2.28;;;;;;;;;;6256485;22;20067;-92
2023/03/24 18:17:56;;;;;;;17.00;1.92;;;;;;;;;;6255330;22;20055;-93
2023/03/24 18:20:25;;;;;;;14.40;2.42;;;;;;;;;;6280100;22;20010;-93
2023/03/24 18:22:52;;;;;;;11.43;2.03;;;;;;;;;;6255661;22;20003;-93
2023/03/24 18:25:19;;;;;;;11.63;1.48;;;;;;;;;;6281507;22;20544;-93
2023/03/24 18:27:45;;;;;;;11.40;2.45;;;;;;;;;;6279853;22;20011;-92
2023/03/24 18:30:13;;;;;;;7.25;1.90;;;;;;;;;;6253840;22;20008;-93
2023/03/24 18:32:39;;;;;;;12.82;1.73;;;;;;;;;;6280711;22;20003;-92
2023/03/24 18:35:10;;;;;;;13.30;1.80;;;;;;;;;;6255754;22;20019;-92
2023/03/24 18:37:40;;;;;;;8.85;1.45;;;;;;;;;;6279855;22;20508;-93
2023/03/24 18:40:07;;;;;;;3.53;1.23;;;;;;;;;;6280379;22;20405;-93
2023/03/24 18:42:34;;;;;;;10.77;1.58;;;;;;;;;;6254327;22;20377;-92
2023/03/24 18:45:00;;;;;;;6.78;1.23;;;;;;;;;;6279376;22;20016;-93
2023/03/24 18:47:29;;;;;;;2.47;1.05;;;;;;;;;;6254082;22;20032;-93
2023/03/24 18:50:00;;;;;;;7.15;1.38;;;;;;;;;;6254374;22;20501;-94
2023/03/24 18:52:27;;;;;;;8.18;2.10;;;;;;;;;;6254576;22;20015;-93
2023/03/24 18:54:53;;;;;;;11.73;2.20;;;;;;;;;;6254159;22;20421;-92
2023/03/24 18:57:20;;;;;;;5.13;0.90;;;;;;;;;;6279990;22;20081;-94
2023/03/24 18:59:46;;;;;;;17.38;2.08;;;;;;;;;;6279803;22;20202;-92
2023/03/24 19:02:14;;;;;;;5.47;1.52;;;;;;;;;;6280729;22;20014;-92
2023/03/24 19:04:41;;;;;;;12.02;2.35;;;;;;;;;;6253405;22;20340;-93
2023/03/24 19:07:13;;;;;;;10.10;2.03;;;;;;;;;;6280227;22;20004;-92
2023/03/24 19:09:39;;;;;;;5.25;1.38;;;;;;;;;;6281013;22;20011;-92
2023/03/24 19:12:07;;;;;;;12.38;2.03;;;;;;;;;;6281848;22;20012;-93
2023/03/24 19:14:34;;;;;;;20.80;1.80;;;;;;;;;;6282969;22;20063;-93
2023/03/24 19:17:00;;;;;;;10.02;1.92;;;;;;;;;;6283836;22;20031;-92
2023/03/24 19:19:30;;;;;;;10.40;2.05;;;;;;;;;;6258494;22;20059;-92
2023/03/24 19:21:57;;;;;;;5.45;1.15;;;;;;;;;;6282926;22;20023;-94
2023/03/24 19:24:27;;;;;;;8.27;1.90;;;;;;;;;;6288660;22;20513;-94
2023/03/24 19:26:57;;;;;;;16.73;2.05;;;;;;;;;;6262254;22;20017;-93
2023/03/24 19:29:23;;;;;;;16.58;2.10;;;;;;;;;;6287344;22;20448;-92
2023/03/24 19:31:49;;;;;;;14.35;2.30;;;;;;;;;;6262287;22;20098;-93
2023/03/24 19:34:17;;;;;;;9.98;1.67;;;;;;;;;;6262464;22;20011;-94
2023/03/24 19:36:47;;;;;;;12.98;1.95;;;;;;;;;;6289559;22;20631;-92
2023/03/24 19:39:17;;;;;;;6.43;1.85;;;;;;;;;;6288260;22;20058;-93
2023/03/24 19:41:44;;;;;;;11.95;2.38;;;;;;;;;;6286297;22;20027;-93
2023/03/24 19:44:11;;;;;;;22.15;2.33;;;;;;;;;;6259155;22;20341;-92
2023/03/24 19:46:41;;;;;;;15.93;2.15;;;;;;;;;;6260842;22;20434;-93
2023/03/24 19:49:08;;;;;;;9.70;1.90;;;;;;;;;;6287519;22;20061;-94
2023/03/24 19:51:35;;;;;;;12.70;1.95;;;;;;;;;;6286301;22;20018;-93
2023/03/24 19:54:01;;;;;;;18.23;2.40;;;;;;;;;;6287530;22;20008;-93
2023/03/24 19:56:27;;;;;;;13.20;1.70;;;;;;;;;;6286290;22;20086;-93
2023/03/24 19:58:54;;;;;;;12.05;1.88;;;;;;;;;;6285776;22;20449;-93
2023/03/24 20:01:22;;;;;;;9.13;2.03;;;;;;;;;;6286717;22;20068;-93
2023/03/24 20:04:01;;;;;;;11.10;2.13;;;;;;;;;;6261771;22;20026;-92
2023/03/24 20:06:30;;;;;;;11.93;2.00;;;;;;;;;;6285907;22;20003;-92
2023/03/24 20:08:57;;;;;;;17.85;2.30;;;;;;;;;;6287791;22;20012;-93
2023/03/24 20:11:23;;;;;;;13.70;1.30;;;;;;;;;;6286080;22;20324;-92
2023/03/24 20:13:53;;;;;;;12.10;1.85;;;;;;;;;;6285644;22;20022;-93
2023/03/24 20:19:08;;;;;;;8.30;2.05;;;;;;;;;;6310591;22;20062;-93
2023/03/24 20:21:35;;;;;;;5.75;0.95;;;;;;;;;;6259575;22;20003;-93
2023/03/24 20:24:03;;;;;;;14.95;1.40;;;;;;;;;;6284866;22;20003;-93
2023/03/24 20:26:29;;;;;;;2.92;0.98;;;;;;;;;;6253948;22;20039;-93
2023/03/24 20:31:50;;;;;;;9.70;1.50;;;;;;;;;;6275313;22;20026;-93
2023/03/24 20:34:16;;;;;;;13.52;1.25;;;;;;;;;;6278308;22;20581;-93
2023/03/24 20:36:42;;;;;;;10.77;1.77;;;;;;;;;;6278480;22;20030;-93
2023/03/24 20:39:08;;;;;;;5.20;0.80;;;;;;;;;;6277908;22;20086;-94
2023/03/24 20:41:38;;;;;;;6.90;1.90;;;;;;;;;;6251277;22;20466;-93
2023/03/24 20:44:06;;;;;;;14.90;2.13;;;;;;;;;;6277169;22;20067;-92
2023/03/24 20:46:38;;;;;;;7.85;0.88;;;;;;;;;;6256224;22;20012;-93
2023/03/24 20:49:15;;;;;;;10.63;1.80;;;;;;;;;;6282077;22;20053;-92
2023/03/24 20:51:52;;;;;;;9.20;1.90;;;;;;;;;;6281804;22;20073;-93
2023/03/24 20:54:23;;;;;;;15.00;2.22;;;;;;;;;;6285247;22;20027;-93
2023/03/24 20:56:52;;;;;;;13.57;3.35;;;;;;;;;;6285133;22;20507;-93
2023/03/24 20:59:18;;;;;;;4.78;1.17;;;;;;;;;;6283856;22;20071;-91
2023/03/24 21:01:47;;;;;;;7.22;1.88;;;;;;;;;;6283491;22;20003;-93
2023/03/24 21:04:15;;;;;;;5.90;1.10;;;;;;;;;;6282989;22;20026;-94
2023/03/24 21:06:47;;;;;;;14.20;1.80;;;;;;;;;;6284162;22;20007;-92
2023/03/24 21:09:21;;;;;;;6.30;1.40;;;;;;;;;;6259506;22;20012;-93
2023/03/24 21:11:47;;;;;;;7.75;1.38;;;;;;;;;;6282593;22;20028;-93
2023/03/24 21:14:17;;;;;;;3.15;1.13;;;;;;;;;;6257113;22;20019;-93
2023/03/24 21:16:47;;;;;;;11.05;1.52;;;;;;;;;;6280236;22;20083;-94
2023/03/24 21:19:20;;;;;;;7.22;1.48;;;;;;;;;;6256883;22;20011;-93
2023/03/24 21:21:49;;;;;;;8.07;1.23;;;;;;;;;;6281141;22;20027;-92
2023/03/24 21:24:15;;;;;;;4.75;0.88;;;;;;;;;;6258292;22;20008;-93
2023/03/24 21:26:44;;;;;;;10.68;1.80;;;;;;;;;;6286339;22;20094;-93
2023/03/24 21:29:11;;;;;;;7.90;1.33;;;;;;;;;;6287132;22;20010;-93
2023/03/24 21:31:40;;;;;;;15.50;2.53;;;;;;;;;;6261151;22;20426;-93
2023/03/24 21:34:10;;;;;;;8.73;1.50;;;;;;;;;;6313413;22;20014;-92
2023/03/24 21:36:37;;;;;;;4.63;1.25;;;;;;;;;;6261321;22;20462;-93
2023/03/24 21:39:05;;;;;;;8.45;1.58;;;;;;;;;;6269726;22;20063;-94
2023/03/24 21:41:45;;;;;;;8.63;1.30;;;;;;;;;;6294940;22;20194;-92
2023/03/24 21:44:22;;;;;;;11.93;1.83;;;;;;;;;;6265712;22;20011;-92
2023/03/24 21:46:51;;;;;;;8.15;1.23;;;;;;;;;;6291511;22;20003;-92
2023/03/24 21:49:18;;;;;;;7.70;1.15;;;;;;;;;;6286569;22;20007;-92
2023/03/24 21:51:45;;;;;;;11.90;2.25;;;;;;;;;;6286461;22;20010;-91
2023/03/24 21:54:19;;;;;;;8.73;1.45;;;;;;;;;;6261192;22;20007;-92
2023/03/24 21:56:53;;;;;;;8.93;1.67;;;;;;;;;;6313578;22;20056;-92
2023/03/24 21:59:23;;;;;;;14.70;1.65;;;;;;;;;;6262408;22;20037;-92
2023/03/24 22:01:51;;;;;;;6.32;1.60;;;;;;;;;;6286875;22;20011;-92
2023/03/24 22:04:18;;;;;;;16.00;1.90;;;;;;;;;;6286857;22;20000;-93
2023/03/24 22:06:46;;;;;;;7.68;1.55;;;;;;;;;;6285765;22;20004;-91
2023/03/24 22:09:12;;;;;;;17.58;3.08;;;;;;;;;;6284582;22;20411;-92
2023/03/24 22:11:55;;;;;;;10.93;1.92;;;;;;;;;;6260156;22;20007;-91
2023/03/24 22:14:21;;;;;;;4.93;0.98;;;;;;;;;;6260740;22;20432;-92
2023/03/24 22:16:47;;;;;;;18.23;3.25;;;;;;;;;;6286288;22;20061;-92
2023/03/24 22:19:13;;;;;;;12.77;2.65;;;;;;;;;;6285421;22;20014;-92
2023/03/24 22:21:39;;;;;;;17.95;2.33;;;;;;;;;;6259300;22;20011;-92
2023/03/24 22:24:15;;;;;;;6.38;1.90;;;;;;;;;;6260159;22;20448;-93
2023/03/24 22:26:42;;;;;;;;;;;;;;;;;;6283394;22;20338;-93
2023/03/24 22:29:10;;;;;;;13.23;1.90;;;;;;;;;;6281149;22;19899;-92
2023/03/24 22:31:40;;;;;;;12.15;2.40;;;;;;;;;;6282284;22;20356;-92
2023/03/24 22:34:07;;;;;;;12.00;1.30;;;;;;;;;;6281331;22;20003;-93